Time;durP1;ratioP1;P1;durP2;ratioP2;P2;SDS_P1;SDS_P2;PMS_P1;PMS_P2;Temp;Humidity;BMP_temperature;BMP_pressure;BME280_temperature;BME280_humidity;BME280_pressure;Samples;Min_cycle;Max_cycle;Signal;HPM_P1;HPM_P2
2024/01/19 00:00:30;;;;;;;26.20;20.53;;;6.70;99.90;;;;;;6186136;23;20195;-59
2024/01/19 00:02:57;;;;;;;31.97;21.70;;;6.70;99.90;;;;;;6186292;23;20168;-59
2024/01/19 00:05:24;;;;;;;32.03;21.27;;;6.70;99.90;;;;;;6185969;23;20200;-59
2024/01/19 00:07:51;;;;;;;29.00;22.30;;;6.80;99.90;;;;;;6186507;23;20177;-60
2024/01/19 00:10:18;;;;;;;30.80;20.97;;;6.80;99.90;;;;;;6186310;23;20254;-60
2024/01/19 00:12:45;;;;;;;29.50;21.60;;;6.80;99.90;;;;;;6160435;23;20191;-60
2024/01/19 00:15:12;;;;;;;32.27;22.07;;;6.80;99.90;;;;;;6186155;23;20232;-60
2024/01/19 00:17:39;;;;;;;31.20;22.63;;;6.80;99.90;;;;;;6186437;23;20191;-61
2024/01/19 00:20:10;;;;;;;31.20;20.83;;;6.80;99.90;;;;;;6186146;23;20528;-59
2024/01/19 00:22:37;;;;;;;31.70;22.70;;;6.90;99.90;;;;;;6186120;23;20163;-60
2024/01/19 00:25:05;;;;;;;32.43;22.17;;;6.90;99.90;;;;;;6186107;23;20178;-60
2024/01/19 00:27:32;;;;;;;30.87;22.07;;;6.90;99.90;;;;;;6186085;23;20173;-60
2024/01/19 00:29:59;;;;;;;31.43;21.83;;;6.90;99.90;;;;;;6185970;23;20172;-60
2024/01/19 00:32:26;;;;;;;27.83;21.30;;;6.90;99.90;;;;;;6186194;23;20175;-60
2024/01/19 00:34:53;;;;;;;34.37;22.27;;;7.00;99.90;;;;;;6186341;23;20168;-60
2024/01/19 00:37:21;;;;;;;31.23;22.63;;;7.00;99.90;;;;;;6186451;23;20190;-59
2024/01/19 00:39:48;;;;;;;33.67;22.63;;;7.00;99.90;;;;;;6160422;23;20221;-61
2024/01/19 00:42:15;;;;;;;30.87;21.63;;;7.00;99.90;;;;;;6185974;23;20183;-60
2024/01/19 00:44:42;;;;;;;31.57;21.47;;;7.00;99.90;;;;;;6160230;23;20205;-59
2024/01/19 00:47:09;;;;;;;33.40;22.40;;;7.00;99.90;;;;;;6186205;23;20175;-60
2024/01/19 00:49:36;;;;;;;35.50;24.03;;;7.00;99.90;;;;;;6160270;23;20172;-60
2024/01/19 00:52:04;;;;;;;34.53;23.10;;;7.00;99.90;;;;;;6186056;23;20493;-60
2024/01/19 00:54:31;;;;;;;33.13;23.07;;;7.00;99.90;;;;;;6185969;23;20175;-60
2024/01/19 00:56:58;;;;;;;28.03;21.50;;;7.00;99.90;;;;;;6185914;23;20171;-60
2024/01/19 00:59:25;;;;;;;37.70;24.20;;;7.10;99.90;;;;;;6185890;23;20176;-60
2024/01/19 01:01:52;;;;;;;32.77;23.60;;;7.00;99.90;;;;;;6185326;23;20194;-59
2024/01/19 01:04:19;;;;;;;32.37;22.27;;;7.10;99.90;;;;;;6185795;23;20202;-60
2024/01/19 01:06:46;;;;;;;34.70;22.33;;;7.00;99.90;;;;;;6186261;23;20156;-60
2024/01/19 01:09:14;;;;;;;34.27;22.97;;;7.00;99.90;;;;;;6186064;23;20584;-60
2024/01/19 01:11:41;;;;;;;33.57;24.63;;;7.00;99.90;;;;;;6186301;23;20588;-60
2024/01/19 01:14:09;;;;;;;35.23;23.47;;;7.00;99.90;;;;;;6185910;23;20182;-60
2024/01/19 01:16:36;;;;;;;35.47;21.37;;;7.00;99.90;;;;;;6186780;23;20171;-60
2024/01/19 01:19:03;;;;;;;33.07;22.53;;;7.00;99.90;;;;;;6162022;23;20187;-60
2024/01/19 01:21:30;;;;;;;36.10;23.30;;;7.00;99.90;;;;;;6187894;23;20203;-60
2024/01/19 01:23:57;;;;;;;34.67;24.27;;;7.00;99.90;;;;;;6188007;23;20499;-60
2024/01/19 01:26:24;;;;;;;35.07;24.27;;;7.00;99.90;;;;;;6187541;23;20168;-60
2024/01/19 01:28:52;;;;;;;36.77;23.33;;;7.00;99.90;;;;;;6187924;23;20176;-60
2024/01/19 01:31:19;;;;;;;39.00;26.13;;;7.00;99.90;;;;;;6161909;23;20172;-60
2024/01/19 01:33:46;;;;;;;41.47;26.90;;;7.00;99.90;;;;;;6187928;23;20185;-60
2024/01/19 01:36:13;;;;;;;46.10;28.17;;;7.00;99.90;;;;;;6187359;23;20619;-60
2024/01/19 01:38:40;;;;;;;38.20;24.40;;;7.10;99.90;;;;;;6187711;23;20262;-60
2024/01/19 01:41:07;;;;;;;40.07;26.50;;;7.10;99.90;;;;;;6187614;23;20196;-60
2024/01/19 01:43:35;;;;;;;40.30;25.87;;;7.10;99.90;;;;;;6187804;23;20175;-60
2024/01/19 01:46:02;;;;;;;41.90;27.03;;;7.10;99.90;;;;;;6187429;23;20237;-60
2024/01/19 01:48:29;;;;;;;42.33;26.63;;;7.20;99.90;;;;;;6187707;23;20167;-60
2024/01/19 01:50:57;;;;;;;48.13;30.13;;;7.10;99.90;;;;;;6187727;23;20183;-60
2024/01/19 01:53:25;;;;;;;52.37;28.77;;;7.10;99.90;;;;;;6187435;23;20655;-60
2024/01/19 01:55:53;;;;;;;46.73;28.63;;;7.10;99.90;;;;;;6187724;23;20433;-61
2024/01/19 01:58:20;;;;;;;55.37;30.47;;;7.20;99.90;;;;;;6187504;23;20554;-60
2024/01/19 02:00:49;;;;;;;50.63;29.23;;;7.20;99.90;;;;;;6187522;23;20195;-60
2024/01/19 02:03:17;;;;;;;47.07;27.87;;;7.20;99.90;;;;;;6187737;23;20171;-60
2024/01/19 02:05:44;;;;;;;45.53;28.93;;;7.20;99.90;;;;;;6187037;23;20191;-60
2024/01/19 02:08:11;;;;;;;43.20;25.77;;;7.20;99.90;;;;;;6161326;23;20193;-60
2024/01/19 02:10:42;;;;;;;38.60;25.60;;;7.20;99.90;;;;;;6161896;23;20431;-60
2024/01/19 02:13:09;;;;;;;41.07;25.53;;;7.20;99.90;;;;;;6186301;23;20178;-60
2024/01/19 02:15:37;;;;;;;43.90;25.80;;;7.20;99.90;;;;;;6186733;23;20180;-60
2024/01/19 02:18:05;;;;;;;46.93;28.50;;;7.20;99.90;;;;;;6187439;23;20188;-61
2024/01/19 02:20:32;;;;;;;44.57;27.27;;;7.20;99.90;;;;;;6186876;23;20262;-60
2024/01/19 02:23:02;;;;;;;41.37;27.80;;;7.20;99.90;;;;;;6186685;23;20247;-60
2024/01/19 02:25:29;;;;;;;39.40;26.97;;;7.20;99.90;;;;;;6187084;23;20227;-60
2024/01/19 02:27:57;;;;;;;42.40;27.90;;;7.20;99.90;;;;;;6186967;23;20565;-60
2024/01/19 02:30:25;;;;;;;54.13;29.47;;;7.20;99.90;;;;;;6186291;23;20580;-60
2024/01/19 02:32:52;;;;;;;52.47;27.93;;;7.20;99.90;;;;;;6187350;23;20203;-60
2024/01/19 02:35:19;;;;;;;44.40;27.03;;;7.20;99.90;;;;;;6187067;23;20171;-60
2024/01/19 02:37:46;;;;;;;57.53;28.77;;;7.20;99.90;;;;;;6187023;23;20571;-60
2024/01/19 02:40:13;;;;;;;47.73;29.57;;;7.10;99.90;;;;;;6187029;23;20183;-60
2024/01/19 02:42:40;;;;;;;49.23;29.77;;;7.10;99.90;;;;;;6186782;23;20186;-60
2024/01/19 02:45:08;;;;;;;56.03;30.27;;;7.10;99.90;;;;;;6186932;23;20183;-60
2024/01/19 02:47:35;;;;;;;51.00;28.70;;;7.00;99.90;;;;;;6186507;23;20174;-60
2024/01/19 02:50:02;;;;;;;64.10;30.70;;;7.00;99.90;;;;;;6186772;23;20219;-60
2024/01/19 02:52:29;;;;;;;56.23;29.60;;;7.00;99.90;;;;;;6186980;23;20175;-60
2024/01/19 02:54:56;;;;;;;69.50;31.43;;;7.00;99.90;;;;;;6161459;23;20182;-60
2024/01/19 02:57:23;;;;;;;64.97;31.20;;;7.00;99.90;;;;;;6186853;23;20483;-60
2024/01/19 02:59:51;;;;;;;56.90;29.67;;;7.00;99.90;;;;;;6161022;23;20275;-60
2024/01/19 03:02:18;;;;;;;63.87;29.70;;;7.00;99.90;;;;;;6186827;23;20218;-60
2024/01/19 03:04:45;;;;;;;66.37;32.90;;;7.00;99.90;;;;;;6186507;23;20222;-60
2024/01/19 03:07:12;;;;;;;68.43;33.10;;;7.00;99.90;;;;;;6186661;23;20479;-61
2024/01/19 03:09:40;;;;;;;66.07;31.67;;;7.00;99.90;;;;;;6186688;23;20171;-60
2024/01/19 03:12:07;;;;;;;58.83;30.43;;;6.90;99.90;;;;;;6186900;23;20175;-60
2024/01/19 03:14:35;;;;;;;68.20;32.80;;;6.90;99.90;;;;;;6186738;23;20263;-60
2024/01/19 03:17:04;;;;;;;64.67;32.40;;;6.90;99.90;;;;;;6186816;23;20183;-60
2024/01/19 03:19:32;;;;;;;63.10;30.80;;;6.90;99.90;;;;;;6186277;23;20250;-60
2024/01/19 03:21:59;;;;;;;60.70;31.97;;;6.90;99.90;;;;;;6186782;23;20193;-60
2024/01/19 03:24:26;;;;;;;63.60;30.30;;;7.00;99.90;;;;;;6186416;23;20171;-60
2024/01/19 03:26:53;;;;;;;68.87;31.37;;;7.00;99.90;;;;;;6186577;23;20227;-60
2024/01/19 03:29:22;;;;;;;60.57;31.47;;;7.00;99.90;;;;;;6160760;23;20184;-60
2024/01/19 03:31:50;;;;;;;63.67;30.90;;;7.00;99.90;;;;;;6186737;23;20202;-60
2024/01/19 03:34:17;;;;;;;68.03;31.83;;;7.00;99.90;;;;;;6160548;23;20176;-60
2024/01/19 03:36:44;;;;;;;60.93;31.10;;;7.00;99.90;;;;;;6186951;23;20172;-60
2024/01/19 03:39:12;;;;;;;67.97;31.77;;;7.00;99.90;;;;;;6186214;23;20173;-67
2024/01/19 03:41:39;;;;;;;69.77;31.17;;;7.00;99.90;;;;;;6186561;23;20198;-59
2024/01/19 03:44:06;;;;;;;69.50;33.07;;;7.00;99.90;;;;;;6185829;23;20165;-58
2024/01/19 03:46:33;;;;;;;66.10;31.53;;;7.10;99.90;;;;;;6186239;23;20554;-58
2024/01/19 03:49:06;;;;;;;68.60;31.27;;;7.10;99.90;;;;;;6160333;23;20170;-58
2024/01/19 03:51:33;;;;;;;78.33;31.60;;;7.10;99.90;;;;;;6160982;23;20282;-59
2024/01/19 03:54:00;;;;;;;62.20;31.20;;;7.10;99.90;;;;;;6136069;23;20213;-59
2024/01/19 03:56:27;;;;;;;71.83;33.33;;;7.00;99.90;;;;;;6186360;23;20174;-59
2024/01/19 03:58:55;;;;;;;62.13;31.27;;;7.00;99.90;;;;;;6186607;23;20654;-59
2024/01/19 04:01:22;;;;;;;67.80;34.27;;;7.00;99.90;;;;;;6160070;23;20196;-59
2024/01/19 04:03:49;;;;;;;70.20;31.13;;;7.00;99.90;;;;;;6186472;23;20191;-60
2024/01/19 04:06:16;;;;;;;66.10;32.40;;;7.10;99.90;;;;;;6186309;23;20203;-59
2024/01/19 04:08:43;;;;;;;76.33;32.40;;;7.10;99.90;;;;;;6161030;23;20572;-59
2024/01/19 04:11:11;;;;;;;64.50;31.13;;;7.10;99.90;;;;;;6186232;23;20645;-59
2024/01/19 04:13:38;;;;;;;67.97;32.80;;;7.10;99.90;;;;;;6186621;23;20180;-59
2024/01/19 04:16:05;;;;;;;65.40;33.37;;;7.10;99.90;;;;;;6186182;23;20171;-59
2024/01/19 04:18:32;;;;;;;62.87;32.00;;;7.10;99.90;;;;;;6186435;23;20177;-59
2024/01/19 04:20:59;;;;;;;66.07;34.10;;;7.10;99.90;;;;;;6186165;23;20199;-58
2024/01/19 04:23:27;;;;;;;69.83;33.20;;;7.10;99.90;;;;;;6186305;23;20251;-59
2024/01/19 04:25:54;;;;;;;67.67;34.77;;;7.20;99.90;;;;;;6186450;23;20174;-59
2024/01/19 04:28:21;;;;;;;80.43;36.97;;;7.20;99.90;;;;;;6160394;23;20195;-59
2024/01/19 04:30:48;;;;;;;82.23;35.57;;;7.20;99.90;;;;;;6186230;23;20174;-59
2024/01/19 04:33:15;;;;;;;79.97;34.80;;;7.20;99.90;;;;;;6185912;23;20174;-59
2024/01/19 04:35:42;;;;;;;75.73;34.63;;;7.20;99.90;;;;;;6186102;23;20200;-59
2024/01/19 04:38:09;;;;;;;73.77;34.90;;;7.20;99.90;;;;;;6186423;23;20168;-59
2024/01/19 04:40:36;;;;;;;76.57;36.30;;;7.20;99.90;;;;;;6186487;23;20473;-59
2024/01/19 04:43:03;;;;;;;84.13;35.80;;;7.20;99.90;;;;;;6186272;23;20199;-59
2024/01/19 04:45:30;;;;;;;86.43;36.63;;;7.30;99.90;;;;;;6186292;23;20172;-59
2024/01/19 04:47:57;;;;;;;87.87;36.90;;;7.30;99.90;;;;;;6186375;23;20519;-59
2024/01/19 04:50:25;;;;;;;85.90;38.07;;;7.30;99.90;;;;;;6186408;23;20177;-59
2024/01/19 04:52:52;;;;;;;89.73;39.47;;;7.30;99.90;;;;;;6187680;23;20181;-59
2024/01/19 04:55:18;;;;;;;84.70;39.57;;;7.30;99.90;;;;;;6188234;23;20186;-59
2024/01/19 04:57:46;;;;;;;91.20;37.63;;;7.30;99.90;;;;;;6187766;23;20176;-59
2024/01/19 05:00:14;;;;;;;107.13;41.33;;;7.30;99.90;;;;;;6188513;23;20175;-59
2024/01/19 05:02:42;;;;;;;86.87;37.93;;;7.40;99.90;;;;;;6188221;23;20416;-59
2024/01/19 05:05:09;;;;;;;87.77;39.60;;;7.40;99.90;;;;;;6188177;23;20240;-59
2024/01/19 05:07:36;;;;;;;93.87;40.47;;;7.40;99.90;;;;;;6188009;23;20609;-59
2024/01/19 05:10:05;;;;;;;94.73;41.73;;;7.40;99.90;;;;;;6188119;23;20156;-59
2024/01/19 05:12:33;;;;;;;101.70;40.90;;;7.40;99.90;;;;;;6187671;23;20179;-59
2024/01/19 05:15:00;;;;;;;110.57;43.30;;;7.40;99.90;;;;;;6188155;23;20603;-59
2024/01/19 05:17:27;;;;;;;101.77;44.30;;;7.40;99.90;;;;;;6187774;23;20172;-59
2024/01/19 05:19:55;;;;;;;100.07;43.17;;;7.40;99.90;;;;;;6187582;23;20190;-59
2024/01/19 05:22:22;;;;;;;119.33;45.50;;;7.40;99.90;;;;;;6187637;23;20197;-59
2024/01/19 05:24:49;;;;;;;132.57;44.23;;;7.40;99.90;;;;;;6187781;23;20246;-59
2024/01/19 05:27:16;;;;;;;111.17;42.30;;;7.40;99.90;;;;;;6187848;23;20172;-59
2024/01/19 05:29:43;;;;;;;109.90;43.70;;;7.40;99.90;;;;;;6187686;23;20169;-59
2024/01/19 05:32:10;;;;;;;120.57;45.97;;;7.40;99.90;;;;;;6187773;23;20254;-59
2024/01/19 05:34:37;;;;;;;117.90;44.70;;;7.50;99.90;;;;;;6161727;23;20190;-59
2024/01/19 05:37:04;;;;;;;111.63;42.40;;;7.50;99.90;;;;;;6187891;23;20195;-59
2024/01/19 05:39:32;;;;;;;115.60;44.30;;;7.50;99.90;;;;;;6187727;23;20189;-59
2024/01/19 05:41:58;;;;;;;112.53;43.30;;;7.50;99.90;;;;;;6161717;23;20195;-59
2024/01/19 05:44:26;;;;;;;111.83;44.03;;;7.50;99.90;;;;;;6187916;23;20180;-59
2024/01/19 05:46:53;;;;;;;115.93;44.97;;;7.50;99.90;;;;;;6187389;23;20597;-59
2024/01/19 05:49:20;;;;;;;110.93;44.10;;;7.50;99.90;;;;;;6187625;23;20167;-59
2024/01/19 05:51:47;;;;;;;99.83;44.60;;;7.50;99.90;;;;;;6187431;23;20203;-59
2024/01/19 05:54:14;;;;;;;114.80;45.17;;;7.60;99.90;;;;;;6187606;23;20607;-59
2024/01/19 05:56:41;;;;;;;116.07;44.43;;;7.60;99.90;;;;;;6187990;23;20492;-59
2024/01/19 05:59:08;;;;;;;115.37;44.80;;;7.60;99.90;;;;;;6187424;23;20172;-59
2024/01/19 06:01:35;;;;;;;112.93;44.97;;;7.60;99.90;;;;;;6187420;23;20257;-59
2024/01/19 06:04:02;;;;;;;102.17;44.70;;;7.60;99.90;;;;;;6187344;23;20181;-59
2024/01/19 06:06:29;;;;;;;119.37;46.30;;;7.60;99.90;;;;;;6187448;23;20221;-59
2024/01/19 06:08:57;;;;;;;117.90;43.73;;;7.60;99.90;;;;;;6161432;23;20264;-59
2024/01/19 06:11:24;;;;;;;115.27;43.33;;;7.60;99.90;;;;;;6187718;23;20192;-59
2024/01/19 06:13:52;;;;;;;123.77;45.00;;;7.60;99.90;;;;;;6187237;23;20173;-59
2024/01/19 06:16:19;;;;;;;131.70;45.30;;;7.60;99.90;;;;;;6187030;23;20186;-59
2024/01/19 06:18:46;;;;;;;114.30;44.67;;;7.60;99.90;;;;;;6187425;23;20175;-59
2024/01/19 06:21:13;;;;;;;129.10;46.07;;;7.60;99.90;;;;;;6187198;23;20179;-59
2024/01/19 06:23:40;;;;;;;118.57;46.50;;;7.60;99.90;;;;;;6161412;23;20180;-60
2024/01/19 06:26:09;;;;;;;121.73;46.07;;;7.60;99.90;;;;;;6187227;23;20672;-59
2024/01/19 06:28:36;;;;;;;110.03;43.13;;;7.60;99.90;;;;;;6187612;23;20197;-59
2024/01/19 06:31:05;;;;;;;122.73;46.50;;;7.60;99.90;;;;;;6187088;23;20582;-59
2024/01/19 06:33:32;;;;;;;110.03;45.00;;;7.60;99.90;;;;;;6187087;23;20186;-59
2024/01/19 06:35:59;;;;;;;120.27;44.13;;;7.60;99.90;;;;;;6187367;23;20173;-60
2024/01/19 06:38:26;;;;;;;111.80;44.60;;;7.60;99.90;;;;;;6186954;23;20180;-61
2024/01/19 06:40:53;;;;;;;119.10;43.97;;;7.50;99.90;;;;;;6187054;23;20231;-60
2024/01/19 06:43:20;;;;;;;114.50;44.53;;;7.50;99.90;;;;;;6186767;23;20212;-60
2024/01/19 06:45:47;;;;;;;110.73;44.83;;;7.50;99.90;;;;;;6187911;23;20174;-62
2024/01/19 06:48:14;;;;;;;129.17;46.77;;;7.50;99.90;;;;;;6186945;23;20172;-61
2024/01/19 06:50:42;;;;;;;116.77;44.27;;;7.50;99.90;;;;;;6187342;23;20185;-61
2024/01/19 06:53:09;;;;;;;115.97;44.40;;;7.50;99.90;;;;;;6160631;23;20251;-61
2024/01/19 06:55:36;;;;;;;111.60;45.07;;;7.50;99.90;;;;;;6187801;23;20437;-61
2024/01/19 06:58:03;;;;;;;122.03;45.40;;;7.50;99.90;;;;;;6186728;23;20662;-60
2024/01/19 07:00:30;;;;;;;97.77;40.37;;;7.50;99.90;;;;;;6187096;23;20462;-61
2024/01/19 07:02:59;;;;;;;109.37;42.17;;;7.50;99.90;;;;;;6186723;23;20212;-61
2024/01/19 07:05:27;;;;;;;111.30;41.43;;;7.40;99.90;;;;;;6186570;23;20196;-61
2024/01/19 07:07:54;;;;;;;102.70;39.27;;;7.40;99.90;;;;;;6186753;23;20184;-61
2024/01/19 07:10:24;;;;;;;98.50;41.70;;;7.40;99.90;;;;;;6187036;23;20184;-60
2024/01/19 07:12:51;;;;;;;101.57;39.90;;;7.40;99.90;;;;;;6186565;23;20176;-60
2024/01/19 07:15:19;;;;;;;101.73;42.10;;;7.40;99.90;;;;;;6160091;23;20262;-61
2024/01/19 07:17:46;;;;;;;95.60;37.87;;;7.50;99.90;;;;;;6187011;23;20172;-61
2024/01/19 07:20:13;;;;;;;86.10;36.30;;;7.50;99.90;;;;;;6186553;23;20476;-61
2024/01/19 07:22:40;;;;;;;92.00;38.87;;;7.40;99.90;;;;;;6187298;23;20188;-61
2024/01/19 07:25:09;;;;;;;94.87;38.10;;;7.50;99.90;;;;;;6186615;23;20173;-61
2024/01/19 07:27:36;;;;;;;88.23;38.63;;;7.50;99.90;;;;;;6186664;23;20182;-60
2024/01/19 07:30:05;;;;;;;83.60;38.10;;;7.50;99.90;;;;;;6186892;23;20174;-61
2024/01/19 07:32:32;;;;;;;80.80;37.10;;;7.50;99.90;;;;;;6186610;23;20449;-61
2024/01/19 07:35:19;;;;;;;92.20;38.50;;;7.50;99.90;;;;;;6186329;23;20164;-61
2024/01/19 07:37:48;;;;;;;87.40;37.00;;;7.50;99.90;;;;;;6187212;23;20214;-61
2024/01/19 07:40:15;;;;;;;85.83;37.90;;;7.60;99.90;;;;;;6186800;23;20180;-62
2024/01/19 07:42:42;;;;;;;79.50;37.27;;;7.60;99.90;;;;;;6186425;23;20262;-61
2024/01/19 07:45:09;;;;;;;91.17;40.37;;;7.60;99.90;;;;;;6186328;23;20182;-61
2024/01/19 07:47:36;;;;;;;91.57;38.00;;;7.60;99.90;;;;;;6186756;23;20171;-61
2024/01/19 07:50:04;;;;;;;83.90;38.07;;;7.70;99.90;;;;;;6186925;23;20446;-61
2024/01/19 07:52:32;;;;;;;92.70;38.90;;;7.70;99.90;;;;;;6186387;23;20277;-61
2024/01/19 07:54:59;;;;;;;89.73;39.37;;;7.70;99.90;;;;;;6186389;23;20176;-60
2024/01/19 07:57:27;;;;;;;83.37;38.70;;;7.70;99.90;;;;;;6186232;23;20612;-61
2024/01/19 07:59:54;;;;;;;84.50;37.87;;;7.80;99.90;;;;;;6160946;23;20181;-61
2024/01/19 08:02:21;;;;;;;81.87;37.60;;;7.80;99.90;;;;;;6186491;23;20198;-61
2024/01/19 08:04:49;;;;;;;94.50;41.07;;;7.80;99.90;;;;;;6163563;23;20265;-61
2024/01/19 08:07:16;;;;;;;93.53;39.83;;;7.90;99.90;;;;;;6186550;23;20165;-61
2024/01/19 08:09:43;;;;;;;90.57;39.57;;;7.90;99.90;;;;;;6186630;23;20187;-61
2024/01/19 08:12:10;;;;;;;103.53;40.90;;;7.90;99.90;;;;;;6186286;23;20182;-60
2024/01/19 08:14:37;;;;;;;94.33;40.87;;;7.90;99.90;;;;;;6186549;23;20201;-61
2024/01/19 08:17:04;;;;;;;107.90;43.47;;;7.90;99.90;;;;;;6186173;23;20179;-61
2024/01/19 08:19:31;;;;;;;105.37;42.90;;;8.00;99.90;;;;;;6185381;23;20186;-60
2024/01/19 08:21:58;;;;;;;114.67;44.00;;;8.00;99.90;;;;;;6186528;23;20202;-61
2024/01/19 08:24:26;;;;;;;112.80;44.23;;;8.00;99.90;;;;;;6186518;23;20174;-61
2024/01/19 08:26:53;;;;;;;106.87;44.17;;;8.00;99.90;;;;;;6188419;23;20172;-60
2024/01/19 08:29:20;;;;;;;113.00;45.20;;;8.00;99.90;;;;;;6188331;23;20250;-61
2024/01/19 08:31:51;;;;;;;118.37;50.07;;;8.00;99.90;;;;;;6188428;23;20189;-61
2024/01/19 08:34:22;;;;;;;115.60;49.47;;;8.00;99.90;;;;;;6188408;23;20155;-61
2024/01/19 08:36:49;;;;;;;117.43;49.10;;;8.10;99.90;;;;;;6188543;23;20177;-61
2024/01/19 08:39:16;;;;;;;117.50;47.90;;;8.00;99.90;;;;;;6187058;23;20175;-61
2024/01/19 08:41:44;;;;;;;120.37;49.33;;;8.00;99.90;;;;;;6188460;23;20485;-61
2024/01/19 08:44:11;;;;;;;132.80;51.13;;;8.10;99.90;;;;;;6188643;23;20186;-61
2024/01/19 08:46:45;;;;;;;127.93;55.47;;;8.10;99.90;;;;;;6187081;23;20237;-61
2024/01/19 08:49:13;;;;;;;134.00;52.90;;;8.10;99.90;;;;;;6188388;23;20512;-61
2024/01/19 08:51:40;;;;;;;125.70;52.43;;;8.10;99.90;;;;;;6187870;23;20234;-61
2024/01/19 08:54:10;;;;;;;129.07;54.60;;;8.10;99.90;;;;;;6188374;23;20254;-61
2024/01/19 08:56:37;;;;;;;141.17;56.57;;;8.10;99.90;;;;;;6187920;23;20231;-60
2024/01/19 08:59:17;;;;;;;126.53;55.40;;;8.10;99.90;;;;;;6188131;23;20166;-61
2024/01/19 09:01:48;;;;;;;128.53;55.00;;;8.20;99.90;;;;;;6188240;23;20194;-61
2024/01/19 09:04:15;;;;;;;111.70;51.20;;;8.20;99.90;;;;;;6188039;23;20171;-61
2024/01/19 09:06:43;;;;;;;125.13;53.60;;;8.20;99.90;;;;;;6188335;23;20508;-61
2024/01/19 09:09:11;;;;;;;118.13;52.03;;;8.30;99.90;;;;;;6187716;23;20184;-60
2024/01/19 09:11:39;;;;;;;122.87;53.07;;;8.30;99.90;;;;;;6188013;23;20591;-60
2024/01/19 09:14:09;;;;;;;118.20;52.80;;;8.30;99.90;;;;;;6188007;23;20256;-61
2024/01/19 09:16:44;;;;;;;124.43;53.57;;;8.40;99.90;;;;;;6188442;23;20186;-60
2024/01/19 09:19:12;;;;;;;121.27;50.07;;;8.40;99.90;;;;;;6187731;23;20759;-61
2024/01/19 09:21:44;;;;;;;119.77;51.87;;;8.40;99.90;;;;;;6187990;23;20176;-61
2024/01/19 09:24:12;;;;;;;118.57;51.23;;;8.50;99.90;;;;;;6187734;23;20192;-60
2024/01/19 09:26:39;;;;;;;120.97;52.27;;;8.50;99.90;;;;;;6188038;23;20198;-61
2024/01/19 09:29:08;;;;;;;118.13;54.10;;;8.60;99.90;;;;;;6187759;23;20221;-61
2024/01/19 09:31:43;;;;;;;108.90;51.93;;;8.70;99.90;;;;;;6187955;23;20227;-61
2024/01/19 09:34:10;;;;;;;114.17;53.63;;;8.80;99.90;;;;;;6187782;23;20176;-61
2024/01/19 09:36:39;;;;;;;114.40;51.83;;;8.80;99.90;;;;;;6187963;23;20188;-61
2024/01/19 09:39:06;;;;;;;109.17;51.13;;;8.80;99.90;;;;;;6187393;23;20162;-61
2024/01/19 09:41:48;;;;;;;109.57;49.07;;;8.80;99.90;;;;;;6187771;23;20604;-60
2024/01/19 09:44:20;;;;;;;101.03;47.93;;;8.90;99.90;;;;;;6187665;23;20185;-61
2024/01/19 09:46:50;;;;;;;100.83;48.40;;;8.90;99.90;;;;;;6186975;23;20162;-61
2024/01/19 09:49:59;;;;;;;95.30;47.87;;;9.00;99.90;;;;;;6187583;23;20604;-61
2024/01/19 09:53:01;;;;;;;99.13;48.57;;;9.00;99.90;;;;;;6044445;23;20272;-62
2024/01/19 09:55:29;;;;;;;94.73;44.80;;;9.00;99.90;;;;;;6068100;23;20188;-61
2024/01/19 09:57:57;;;;;;;102.63;45.63;;;9.00;99.90;;;;;;6130456;23;20186;-61
2024/01/19 10:00:24;;;;;;;86.20;43.97;;;9.00;99.90;;;;;;6187540;23;20196;-61
2024/01/19 10:02:53;;;;;;;89.43;46.53;;;9.00;99.90;;;;;;6187395;23;20211;-60
2024/01/19 10:05:22;;;;;;;89.47;43.50;;;9.00;99.90;;;;;;6187527;23;20251;-60
2024/01/19 10:07:55;;;;;;;85.50;43.63;;;9.00;99.90;;;;;;6187305;23;20181;-60
2024/01/19 10:10:22;;;;;;;80.90;42.57;;;9.00;99.90;;;;;;6187447;23;20182;-61
2024/01/19 10:12:50;;;;;;;94.87;45.73;;;9.00;99.90;;;;;;6187810;23;20191;-61
2024/01/19 10:15:17;;;;;;;78.50;40.33;;;9.00;99.90;;;;;;6187389;23;20603;-62
2024/01/19 10:17:45;;;;;;;83.37;43.50;;;9.00;99.90;;;;;;6187014;23;20178;-61
2024/01/19 10:20:14;;;;;;;79.20;40.73;;;8.90;99.90;;;;;;6161098;23;20217;-61
2024/01/19 10:22:42;;;;;;;72.37;39.90;;;8.90;99.90;;;;;;6186842;23;20185;-61
2024/01/19 10:25:12;;;;;;;81.33;43.47;;;8.90;99.90;;;;;;6187548;23;20185;-61
2024/01/19 10:27:44;;;;;;;79.60;42.60;;;8.90;99.90;;;;;;6187454;23;20471;-62
2024/01/19 10:30:25;;;;;;;90.83;44.40;;;8.90;99.90;;;;;;6187335;23;20166;-61
2024/01/19 10:33:06;;;;;;;98.73;45.57;;;8.90;99.90;;;;;;6160987;23;20201;-60
2024/01/19 10:35:37;;;;;;;91.70;44.73;;;8.90;99.90;;;;;;6187168;23;20171;-61
2024/01/19 10:38:07;;;;;;;85.00;44.43;;;8.90;99.90;;;;;;6187242;23;20245;-61
2024/01/19 10:40:35;;;;;;;87.40;43.20;;;8.80;99.90;;;;;;6186743;23;20252;-61
2024/01/19 10:43:03;;;;;;;86.73;42.40;;;8.90;99.90;;;;;;6186892;23;20230;-61
2024/01/19 10:45:34;;;;;;;83.43;41.27;;;8.80;99.90;;;;;;6186882;23;20175;-60
2024/01/19 10:48:05;;;;;;;81.43;40.70;;;8.80;99.90;;;;;;6186789;23;20164;-61
2024/01/19 10:50:32;;;;;;;76.20;39.83;;;8.80;99.90;;;;;;6160872;23;20189;-61
2024/01/19 10:53:02;;;;;;;82.87;40.97;;;8.80;99.90;;;;;;6186732;23;20220;-61
2024/01/19 10:55:31;;;;;;;81.40;40.73;;;8.80;99.90;;;;;;6186871;23;20174;-60
2024/01/19 10:58:04;;;;;;;79.33;39.27;;;8.80;99.90;;;;;;6186758;23;20190;-60
2024/01/19 11:00:36;;;;;;;79.10;38.90;;;8.70;99.90;;;;;;6186529;23;20161;-60
2024/01/19 11:03:03;;;;;;;79.33;40.80;;;8.70;99.90;;;;;;6186429;23;20771;-61
2024/01/19 11:05:32;;;;;;;76.23;38.63;;;8.70;99.90;;;;;;6171868;23;20676;-61
2024/01/19 11:08:01;;;;;;;88.00;42.50;;;8.70;99.90;;;;;;6186891;23;20195;-60
2024/01/19 11:10:30;;;;;;;88.03;41.23;;;8.70;99.90;;;;;;6186470;23;21019;-61
2024/01/19 11:13:00;;;;;;;81.93;40.80;;;8.70;99.90;;;;;;6186764;23;20177;-60
2024/01/19 11:15:43;;;;;;;88.10;43.37;;;8.70;99.90;;;;;;6186318;23;20183;-62
2024/01/19 11:18:11;;;;;;;84.10;40.47;;;8.70;99.90;;;;;;6186946;23;20566;-61
2024/01/19 11:20:39;;;;;;;91.23;41.90;;;8.70;99.90;;;;;;6186605;23;20434;-61
2024/01/19 11:23:07;;;;;;;88.33;44.33;;;8.70;99.90;;;;;;6186506;23;20204;-62
2024/01/19 11:25:46;;;;;;;85.50;43.83;;;8.70;99.90;;;;;;6186631;23;20220;-61
2024/01/19 11:28:20;;;;;;;96.67;44.97;;;8.70;99.90;;;;;;6187412;23;20182;-60
2024/01/19 11:31:24;;;;;;;84.00;42.90;;;8.70;99.90;;;;;;6187326;23;20507;-61
2024/01/19 11:33:54;;;;;;;87.90;43.03;;;8.70;99.90;;;;;;6186966;23;20168;-60
2024/01/19 11:36:40;;;;;;;87.47;42.93;;;8.70;99.90;;;;;;6187028;23;20259;-61
2024/01/19 11:39:09;;;;;;;85.33;42.20;;;8.70;99.90;;;;;;6186847;23;20166;-60
2024/01/19 11:41:36;;;;;;;91.40;42.30;;;8.70;99.90;;;;;;6186781;23;20176;-60
2024/01/19 11:44:05;;;;;;;103.60;45.40;;;8.60;99.90;;;;;;6186259;23;20193;-60
2024/01/19 11:46:52;;;;;;;97.03;43.47;;;8.60;99.90;;;;;;6186576;23;20188;-60
2024/01/19 11:49:35;;;;;;;108.20;46.73;;;8.50;99.90;;;;;;6186396;23;20171;-61
2024/01/19 11:52:23;;;;;;;105.80;46.00;;;8.40;99.90;;;;;;6186080;23;20193;-61
2024/01/19 11:54:50;;;;;;;104.27;45.73;;;8.40;99.90;;;;;;6186481;23;20191;-62
2024/01/19 11:57:21;;;;;;;103.33;47.03;;;8.30;99.90;;;;;;6186411;23;20516;-61
2024/01/19 11:59:48;;;;;;;107.40;47.80;;;8.30;99.90;;;;;;6186063;23;20160;-60
2024/01/19 12:02:31;;;;;;;98.17;45.67;;;8.30;99.90;;;;;;6186105;23;20185;-61
2024/01/19 12:05:01;;;;;;;68.23;30.10;;;8.20;99.90;;;;;;6185882;23;20271;-60
2024/01/19 12:07:28;;;;;;;39.07;17.10;;;8.20;99.90;;;;;;6186227;23;20179;-60
2024/01/19 12:10:12;;;;;;;27.20;8.03;;;8.10;99.90;;;;;;6186068;23;20250;-60
2024/01/19 12:12:40;;;;;;;11.10;4.17;;;8.00;99.90;;;;;;6186181;23;20165;-61
2024/01/19 12:15:09;;;;;;;7.03;3.77;;;7.90;99.90;;;;;;6186087;23;20229;-61
2024/01/19 12:17:40;;;;;;;11.57;3.10;;;7.80;99.90;;;;;;6185806;23;20200;-61
2024/01/19 12:20:11;;;;;;;5.80;1.90;;;7.70;99.90;;;;;;6186342;23;20163;-61
2024/01/19 12:22:38;;;;;;;10.30;2.07;;;7.60;99.90;;;;;;6186511;23;20452;-60
2024/01/19 12:25:19;;;;;;;4.30;1.60;;;7.60;99.90;;;;;;6186053;23;20208;-60
2024/01/19 12:27:48;;;;;;;5.20;1.43;;;7.60;99.90;;;;;;6186087;23;20163;-60
2024/01/19 12:30:19;;;;;;;4.53;1.50;;;7.50;99.90;;;;;;6186163;23;20188;-61
2024/01/19 12:32:47;;;;;;;13.13;2.60;;;7.50;99.90;;;;;;6185908;23;20231;-60
2024/01/19 12:35:19;;;;;;;4.83;1.20;;;7.50;99.90;;;;;;6186026;23;20200;-60
2024/01/19 12:37:47;;;;;;;5.20;1.33;;;7.50;99.90;;;;;;6160060;23;20589;-60
2024/01/19 12:40:21;;;;;;;7.50;2.27;;;7.50;99.90;;;;;;6185811;23;20663;-61
2024/01/19 12:42:48;;;;;;;7.43;1.53;;;7.40;99.90;;;;;;6186210;23;20587;-61